Time;durP1;ratioP1;P1;durP2;ratioP2;P2;SDS_P1;SDS_P2;PMS_P1;PMS_P2;Temp;Humidity;BMP_temperature;BMP_pressure;BME280_temperature;BME280_humidity;BME280_pressure;Samples;Min_cycle;Max_cycle;Signal;HPM_P1;HPM_P2
2022/01/13 00:00:32;;;;;;;36.13;11.13;;;4.70;99.90;;;;;;5074669;28;20032;-74
2022/01/13 00:02:57;;;;;;;31.45;11.07;;;4.70;99.90;;;;;;5074251;28;20025;-77
2022/01/13 00:05:28;;;;;;;25.27;10.20;;;4.70;99.90;;;;;;5073591;28;20472;-76
2022/01/13 00:07:57;;;;;;;;;;;4.70;99.90;;;;;;5075025;28;20037;-76
2022/01/13 00:10:25;;;;;;;26.90;9.18;;;4.70;99.90;;;;;;5073577;28;19911;-76
2022/01/13 00:13:03;;;;;;;32.50;11.70;;;4.70;99.90;;;;;;5073652;28;20101;-77
2022/01/13 00:15:47;;;;;;;29.35;10.63;;;4.70;99.90;;;;;;5074241;28;20024;-75
2022/01/13 00:18:15;;;;;;;44.17;11.55;;;4.70;99.90;;;;;;5074094;28;20384;-75
2022/01/13 00:21:10;;;;;;;45.80;12.25;;;4.60;99.90;;;;;;5073542;28;20028;-76
2022/01/13 00:23:47;;;;;;;37.20;12.32;;;4.70;99.90;;;;;;5073923;28;20068;-75
2022/01/13 00:26:24;;;;;;;37.30;12.15;;;4.60;99.90;;;;;;5073382;28;20039;-76
2022/01/13 00:28:52;;;;;;;42.65;11.68;;;4.70;99.90;;;;;;5074083;28;20115;-75
2022/01/13 00:31:26;;;;;;;45.22;12.70;;;4.70;99.90;;;;;;5073241;28;20020;-75
2022/01/13 00:33:54;;;;;;;36.63;12.35;;;4.70;99.90;;;;;;5073232;28;20067;-76
2022/01/13 00:36:22;;;;;;;45.20;12.90;;;4.70;99.90;;;;;;5073485;28;20059;-76
2022/01/13 00:38:48;;;;;;;39.92;12.80;;;4.70;99.90;;;;;;5074148;28;20028;-76
2022/01/13 00:41:14;;;;;;;37.80;13.02;;;4.80;99.90;;;;;;5073099;28;20023;-74
2022/01/13 00:43:45;;;;;;;41.08;13.02;;;4.70;99.90;;;;;;5074036;28;20456;-75
2022/01/13 00:46:18;;;;;;;46.38;12.95;;;4.70;99.90;;;;;;5073703;28;20036;-74
2022/01/13 00:48:44;;;;;;;42.55;12.88;;;4.60;99.90;;;;;;5073402;28;20040;-74
2022/01/13 00:51:09;;;;;;;39.97;13.35;;;4.60;99.90;;;;;;5073437;28;20025;-76
2022/01/13 00:53:35;;;;;;;41.53;13.27;;;4.70;99.90;;;;;;5073449;28;20121;-76
2022/01/13 00:56:03;;;;;;;49.00;14.88;;;4.60;99.90;;;;;;5073504;28;20029;-76
2022/01/13 00:58:32;;;;;;;44.88;14.85;;;4.70;99.90;;;;;;5073222;28;20515;-75
2022/01/13 01:01:02;;;;;;;45.72;13.48;;;4.70;99.90;;;;;;5073397;28;20443;-74
2022/01/13 01:03:28;;;;;;;53.22;14.35;;;4.60;99.90;;;;;;5072620;28;20055;-75
2022/01/13 01:05:55;;;;;;;50.22;14.93;;;4.70;99.90;;;;;;5073084;28;20032;-74
2022/01/13 01:08:21;;;;;;;56.33;15.98;;;4.60;99.90;;;;;;5072324;28;20099;-76
2022/01/13 01:10:49;;;;;;;49.97;15.60;;;4.70;99.90;;;;;;5073693;28;20030;-75
2022/01/13 01:13:20;;;;;;;58.80;16.08;;;4.60;99.90;;;;;;5072580;28;20056;-75
2022/01/13 01:15:49;;;;;;;;;;;4.60;99.90;;;;;;5072708;28;20029;-75
2022/01/13 01:18:29;;;;;;;61.88;17.50;;;4.70;99.90;;;;;;5072424;28;19904;-76
2022/01/13 01:29:17;;;;;;;68.72;21.70;;;4.70;99.90;;;;;;5072767;28;20488;-75
2022/01/13 01:31:50;;;;;;;73.20;19.85;;;4.70;99.90;;;;;;5072544;28;20021;-74
2022/01/13 01:36:58;;;;;;;74.45;21.38;;;4.70;99.90;;;;;;5074923;28;20021;-75
2022/01/13 01:39:24;;;;;;;78.10;21.63;;;4.80;99.90;;;;;;5072636;28;20111;-75
2022/01/13 01:41:52;;;;;;;69.47;20.90;;;4.70;99.90;;;;;;5071808;28;20095;-75
2022/01/13 01:44:20;;;;;;;71.97;21.65;;;4.70;99.90;;;;;;5073177;28;20055;-75
2022/01/13 01:46:46;;;;;;;72.95;20.23;;;4.70;99.90;;;;;;5073174;28;20108;-75
2022/01/13 01:49:19;;;;;;;70.07;20.77;;;4.70;99.90;;;;;;5072548;28;20107;-76
2022/01/13 01:51:47;;;;;;;71.97;20.60;;;4.80;99.90;;;;;;5072069;28;20028;-76
2022/01/13 01:54:13;;;;;;;69.53;19.33;;;4.80;99.90;;;;;;5072221;28;20035;-74
2022/01/13 01:56:40;;;;;;;70.10;20.00;;;4.80;99.90;;;;;;5072545;28;20032;-76
2022/01/13 01:59:12;;;;;;;67.53;19.38;;;4.80;99.90;;;;;;5071375;28;20116;-76
2022/01/13 02:01:38;;;;;;;63.35;19.73;;;4.80;99.90;;;;;;5072142;28;20102;-74
2022/01/13 02:04:04;;;;;;;63.63;19.17;;;4.80;99.90;;;;;;5086970;28;20488;-74
2022/01/13 02:06:30;;;;;;;63.45;20.27;;;4.90;99.90;;;;;;5091856;28;20517;-75
2022/01/13 02:08:56;;;;;;;69.28;21.10;;;4.90;99.90;;;;;;5092538;28;20056;-74
2022/01/13 02:11:23;;;;;;;74.10;21.48;;;4.80;99.90;;;;;;5091877;28;20051;-75
2022/01/13 02:13:52;;;;;;;75.95;22.38;;;4.80;99.90;;;;;;5092101;28;20487;-74
2022/01/13 02:18:59;;;;;;;73.40;21.23;;;4.80;99.90;;;;;;5091751;28;20032;-74
2022/01/13 02:21:26;;;;;;;69.25;20.13;;;4.80;99.90;;;;;;5092078;28;20024;-74
2022/01/13 02:23:55;;;;;;;71.85;21.05;;;4.80;99.90;;;;;;5092257;28;20028;-76
2022/01/13 02:26:24;;;;;;;70.35;20.50;;;4.80;99.90;;;;;;5091399;28;20056;-76
2022/01/13 02:28:53;;;;;;;65.68;18.73;;;4.80;99.90;;;;;;5092529;28;20153;-76
2022/01/13 02:31:19;;;;;;;63.15;18.60;;;4.70;99.90;;;;;;5092130;28;20031;-76
2022/01/13 02:33:45;;;;;;;55.92;17.38;;;4.80;99.90;;;;;;5091537;28;20377;-76
2022/01/13 02:36:11;;;;;;;56.97;19.60;;;4.80;99.90;;;;;;5091829;28;20020;-76
2022/01/13 02:38:36;;;;;;;55.25;18.05;;;4.90;99.90;;;;;;5092253;28;20035;-75
2022/01/13 02:41:03;;;;;;;68.97;18.98;;;4.70;99.90;;;;;;5091519;28;20020;-76
2022/01/13 02:43:33;;;;;;;59.15;19.65;;;4.80;99.90;;;;;;5091941;28;20024;-76
2022/01/13 02:46:18;;;;;;;62.63;19.17;;;4.80;99.90;;;;;;5092098;28;20035;-76
2022/01/13 02:48:46;;;;;;;50.88;18.33;;;4.80;99.90;;;;;;5091119;28;20032;-77
2022/01/13 02:51:14;;;;;;;71.18;21.10;;;4.70;99.90;;;;;;5091856;28;20024;-76
2022/01/13 02:53:40;;;;;;;67.47;19.05;;;4.80;99.90;;;;;;5092381;28;20032;-75
2022/01/13 02:56:06;;;;;;;84.70;21.50;;;4.80;99.90;;;;;;5095332;28;20426;-76
2022/01/13 02:58:33;;;;;;;67.55;21.83;;;4.70;99.90;;;;;;5095931;28;20433;-76
2022/01/13 03:00:59;;;;;;;64.22;19.40;;;4.80;99.90;;;;;;5095174;28;20069;-77
2022/01/13 03:03:26;;;;;;;72.45;21.67;;;4.80;99.90;;;;;;5095557;28;20043;-75
2022/01/13 03:05:52;;;;;;;66.72;20.02;;;4.80;99.90;;;;;;5095892;28;20035;-76
2022/01/13 03:08:17;;;;;;;58.70;19.70;;;4.90;99.90;;;;;;5095324;28;20016;-76
2022/01/13 03:10:43;;;;;;;72.05;22.48;;;4.80;99.90;;;;;;5096204;28;20020;-76
2022/01/13 03:13:09;;;;;;;64.88;19.60;;;4.80;99.90;;;;;;5096028;28;20376;-76
2022/01/13 03:15:34;;;;;;;89.28;21.55;;;4.80;99.90;;;;;;5094985;28;20016;-76
2022/01/13 03:18:00;;;;;;;69.00;20.52;;;4.80;99.90;;;;;;5095420;28;20032;-75
2022/01/13 03:20:29;;;;;;;74.65;22.15;;;4.80;99.90;;;;;;5095208;28;20025;-75
2022/01/13 03:22:55;;;;;;;67.38;19.35;;;4.90;99.90;;;;;;5094814;28;20016;-76
2022/01/13 03:25:22;;;;;;;72.10;20.58;;;4.90;99.90;;;;;;5095756;28;20028;-76
2022/01/13 03:27:56;;;;;;;66.60;21.42;;;4.90;99.90;;;;;;5096055;28;20081;-76
2022/01/13 03:30:22;;;;;;;72.53;22.33;;;4.90;99.90;;;;;;5095671;28;20032;-76
2022/01/13 03:32:48;;;;;;;66.03;18.75;;;4.90;99.90;;;;;;5095722;28;20031;-76
2022/01/13 03:35:14;;;;;;;67.32;19.55;;;4.90;99.90;;;;;;5095753;28;20417;-76
2022/01/13 03:37:39;;;;;;;68.13;20.27;;;4.90;99.90;;;;;;5096101;28;20020;-76
2022/01/13 03:40:06;;;;;;;71.25;19.98;;;4.90;99.90;;;;;;5095212;28;20089;-74
2022/01/13 03:42:32;;;;;;;55.35;16.85;;;4.90;99.90;;;;;;5095719;28;20119;-75
2022/01/13 03:44:58;;;;;;;59.85;18.55;;;5.00;99.90;;;;;;5097129;28;20051;-74
2022/01/13 03:47:24;;;;;;;73.68;19.08;;;5.00;99.90;;;;;;5095154;28;20382;-74
2022/01/13 03:49:50;;;;;;;60.65;19.02;;;5.00;99.90;;;;;;5095098;28;20111;-77
2022/01/13 03:52:22;;;;;;;66.13;18.15;;;5.00;99.90;;;;;;5095027;28;20020;-74
2022/01/13 03:55:25;;;;;;;57.95;16.63;;;5.00;99.90;;;;;;5097209;28;20028;-76
2022/01/13 03:58:35;;;;;;;69.05;18.08;;;5.00;99.90;;;;;;5095026;28;20142;-76
2022/01/13 04:01:38;;;;;;;61.67;18.13;;;5.00;99.90;;;;;;5094558;28;20048;-74
2022/01/13 04:04:06;;;;;;;55.53;18.60;;;5.00;99.90;;;;;;5093460;28;20052;-74
2022/01/13 04:06:41;;;;;;;64.22;17.70;;;5.00;99.90;;;;;;5093553;28;20031;-74
2022/01/13 04:09:32;;;;;;;59.88;17.63;;;5.00;99.90;;;;;;5094381;28;20123;-74
2022/01/13 04:12:01;;;;;;;53.15;16.58;;;5.00;99.90;;;;;;5093717;28;20498;-74
2022/01/13 04:14:30;;;;;;;54.63;16.02;;;4.90;99.90;;;;;;5094259;28;20059;-74
2022/01/13 04:16:56;;;;;;;50.85;16.08;;;5.00;99.90;;;;;;5094377;28;20031;-74
2022/01/13 04:19:22;;;;;;;53.00;15.68;;;5.00;99.90;;;;;;5093195;28;20020;-77
2022/01/13 04:21:48;;;;;;;52.20;16.05;;;4.90;99.90;;;;;;5094454;28;20459;-75
2022/01/13 04:24:14;;;;;;;49.47;15.88;;;5.00;99.90;;;;;;5094083;28;20069;-74
2022/01/13 04:26:42;;;;;;;61.72;18.17;;;4.90;99.90;;;;;;5093407;28;20107;-75
2022/01/13 04:31:42;;;;;;;61.08;16.55;;;4.90;99.90;;;;;;5093989;28;20464;-74
2022/01/13 04:34:08;;;;;;;63.42;18.60;;;4.90;99.90;;;;;;5092972;28;20476;-74
2022/01/13 04:36:34;;;;;;;61.08;18.00;;;4.90;99.90;;;;;;5094073;28;20024;-74
2022/01/13 04:39:00;;;;;;;61.08;18.20;;;4.90;99.90;;;;;;5094064;28;20024;-75
2022/01/13 04:41:33;;;;;;;61.63;17.73;;;4.90;99.90;;;;;;5093046;28;20028;-75
2022/01/13 04:43:59;;;;;;;58.53;17.73;;;4.80;99.90;;;;;;5093702;28;20430;-74
2022/01/13 04:46:24;;;;;;;50.70;16.20;;;4.90;99.90;;;;;;5092808;28;20020;-75
2022/01/13 04:48:51;;;;;;;60.95;17.30;;;4.90;99.90;;;;;;5093638;28;20032;-74
2022/01/13 04:51:16;;;;;;;48.95;16.15;;;4.90;99.90;;;;;;5093207;28;20486;-74
2022/01/13 04:53:42;;;;;;;56.83;17.17;;;4.90;99.90;;;;;;5092961;28;20024;-75
2022/01/13 04:56:26;;;;;;;53.28;17.95;;;4.90;99.90;;;;;;5093171;28;20028;-74
2022/01/13 04:58:52;;;;;;;49.10;16.27;;;4.90;99.90;;;;;;5093452;28;20025;-75
2022/01/13 05:01:17;;;;;;;51.35;17.67;;;4.80;99.90;;;;;;5092605;28;20069;-77
2022/01/13 05:03:43;;;;;;;57.28;16.00;;;4.80;99.90;;;;;;5093399;28;20059;-74
2022/01/13 05:06:09;;;;;;;41.28;14.95;;;4.90;99.90;;;;;;5093007;28;20036;-75
2022/01/13 05:08:35;;;;;;;55.83;16.02;;;4.90;99.90;;;;;;5092769;28;20024;-75
2022/01/13 05:11:00;;;;;;;50.25;16.48;;;4.90;99.90;;;;;;5093456;28;20027;-75
2022/01/13 05:13:26;;;;;;;48.05;16.60;;;4.80;99.90;;;;;;5092940;28;20097;-75
2022/01/13 05:15:54;;;;;;;54.97;16.50;;;4.90;99.90;;;;;;5092279;28;20349;-76
2022/01/13 05:18:27;;;;;;;59.03;17.70;;;4.80;99.90;;;;;;5093111;28;20035;-76
2022/01/13 05:21:04;;;;;;;60.40;18.92;;;4.90;99.90;;;;;;5093149;28;20089;-74
2022/01/13 05:23:29;;;;;;;60.50;17.48;;;4.90;99.90;;;;;;5092510;28;20040;-75
2022/01/13 05:25:55;;;;;;;53.97;17.60;;;4.80;99.90;;;;;;5092923;28;20020;-75
2022/01/13 05:28:20;;;;;;;55.33;17.27;;;4.80;99.90;;;;;;5091770;28;20119;-74
2022/01/13 05:30:46;;;;;;;51.22;15.18;;;4.80;99.90;;;;;;5093094;28;20020;-74
2022/01/13 05:33:12;;;;;;;50.03;17.65;;;4.80;99.90;;;;;;5092445;28;20040;-76
2022/01/13 05:35:38;;;;;;;49.95;17.23;;;4.90;99.90;;;;;;5092636;28;20067;-74
2022/01/13 05:38:05;;;;;;;50.33;15.10;;;4.90;99.90;;;;;;5093137;28;20464;-74
2022/01/13 05:40:34;;;;;;;56.65;18.75;;;4.90;99.90;;;;;;5092919;28;20039;-76
2022/01/13 05:43:00;;;;;;;54.45;17.92;;;4.90;99.90;;;;;;5092144;28;20024;-73
2022/01/13 05:45:29;;;;;;;53.95;18.92;;;4.90;99.90;;;;;;5092452;28;20078;-75
2022/01/13 05:47:57;;;;;;;53.13;18.63;;;4.80;99.90;;;;;;5092768;28;20051;-74
2022/01/13 05:50:24;;;;;;;49.83;17.95;;;4.90;99.90;;;;;;5091834;28;20028;-76
2022/01/13 05:52:49;;;;;;;56.08;19.55;;;4.90;99.90;;;;;;5093988;28;20114;-76
2022/01/13 05:55:15;;;;;;;62.10;19.90;;;4.90;99.90;;;;;;5092818;28;20047;-75
2022/01/13 05:57:41;;;;;;;55.13;19.95;;;4.80;99.90;;;;;;5091851;28;20035;-75
2022/01/13 06:00:09;;;;;;;57.08;19.35;;;4.90;99.90;;;;;;5092247;28;20028;-75
2022/01/13 06:02:35;;;;;;;52.33;19.23;;;4.90;99.90;;;;;;5095269;28;20032;-75
2022/01/13 06:05:01;;;;;;;56.28;19.27;;;4.80;99.90;;;;;;5091918;28;20048;-75
2022/01/13 06:07:26;;;;;;;52.78;19.20;;;4.80;99.90;;;;;;5091999;28;20024;-75
2022/01/13 06:09:52;;;;;;;50.25;19.90;;;4.80;99.90;;;;;;5092528;28;20437;-75
2022/01/13 06:12:19;;;;;;;52.15;18.05;;;4.90;99.90;;;;;;5091408;28;20399;-75
2022/01/13 06:14:45;;;;;;;53.00;19.08;;;4.80;99.90;;;;;;5092424;28;20032;-76
2022/01/13 06:17:11;;;;;;;44.63;18.60;;;4.80;99.90;;;;;;5092018;28;20387;-75
2022/01/13 06:19:36;;;;;;;48.35;18.63;;;4.80;99.90;;;;;;5091501;28;20048;-76
2022/01/13 06:22:02;;;;;;;53.25;19.67;;;4.90;99.90;;;;;;5092120;28;20035;-75
2022/01/13 06:24:28;;;;;;;44.28;17.70;;;4.90;99.90;;;;;;5092597;28;20020;-75
2022/01/13 06:26:53;;;;;;;53.40;19.00;;;4.80;99.90;;;;;;5092925;28;20035;-76
2022/01/13 06:29:19;;;;;;;52.40;20.02;;;4.90;99.90;;;;;;5092572;28;20024;-76
2022/01/13 06:31:44;;;;;;;53.47;18.20;;;4.80;99.90;;;;;;5092618;28;20028;-76
2022/01/13 06:34:12;;;;;;;53.72;19.25;;;4.80;99.90;;;;;;5092920;28;20078;-76
2022/01/13 06:36:38;;;;;;;47.03;18.73;;;4.90;99.90;;;;;;5092976;28;20391;-76
2022/01/13 06:39:03;;;;;;;51.25;19.40;;;4.80;99.90;;;;;;5092216;28;20032;-76
2022/01/13 06:41:29;;;;;;;53.15;19.30;;;4.80;99.90;;;;;;5092606;28;20491;-76
2022/01/13 06:43:54;;;;;;;46.20;18.02;;;4.80;99.90;;;;;;5092735;28;20020;-76
2022/01/13 06:46:20;;;;;;;48.92;19.88;;;4.80;99.90;;;;;;5091662;28;20031;-76
2022/01/13 06:48:46;;;;;;;44.25;18.40;;;4.80;99.90;;;;;;5093155;28;20042;-75
2022/01/13 06:51:11;;;;;;;46.60;19.40;;;4.80;99.90;;;;;;5092359;28;20024;-76
2022/01/13 06:53:37;;;;;;;49.50;19.40;;;4.80;99.90;;;;;;5091587;28;20488;-75
2022/01/13 06:56:04;;;;;;;57.30;18.13;;;4.80;99.90;;;;;;5079990;28;20023;-76
2022/01/13 06:58:29;;;;;;;52.35;20.05;;;4.70;99.90;;;;;;5071435;28;20036;-76
2022/01/13 07:00:55;;;;;;;46.25;18.02;;;4.70;99.90;;;;;;5070818;28;20035;-76
2022/01/13 07:03:21;;;;;;;45.53;18.77;;;4.70;99.90;;;;;;5079358;28;20147;-76
2022/01/13 07:05:47;;;;;;;53.08;19.08;;;4.70;99.90;;;;;;5069843;28;20028;-77
2022/01/13 07:08:16;;;;;;;46.80;17.52;;;4.70;99.90;;;;;;5070329;28;20032;-75
2022/01/13 07:10:41;;;;;;;47.40;17.77;;;4.70;99.90;;;;;;5071698;28;20046;-74
2022/01/13 07:13:07;;;;;;;50.97;19.95;;;4.70;99.90;;;;;;5071018;28;20420;-75
2022/01/13 07:15:33;;;;;;;54.67;18.75;;;4.80;99.90;;;;;;5070894;28;20139;-74
2022/01/13 07:17:59;;;;;;;48.50;18.35;;;4.70;99.90;;;;;;5070899;28;20072;-76
2022/01/13 07:20:27;;;;;;;52.13;19.67;;;4.70;99.90;;;;;;5072547;28;20028;-75
2022/01/13 07:22:53;;;;;;;45.40;18.00;;;4.80;99.90;;;;;;5090940;28;20096;-74
2022/01/13 07:25:19;;;;;;;44.65;16.80;;;4.80;99.90;;;;;;5090717;28;20082;-74
2022/01/13 07:27:44;;;;;;;45.90;17.58;;;4.80;99.90;;;;;;5091104;28;20023;-75
2022/01/13 07:30:11;;;;;;;47.67;17.85;;;4.80;99.90;;;;;;5087533;28;20031;-76
2022/01/13 07:32:41;;;;;;;48.50;17.77;;;4.80;99.90;;;;;;5087777;28;20024;-75
2022/01/13 07:35:07;;;;;;;41.58;17.45;;;4.80;99.90;;;;;;5089900;28;20035;-75
2022/01/13 07:37:33;;;;;;;47.10;18.48;;;4.80;99.90;;;;;;5086294;28;20111;-74
2022/01/13 07:39:59;;;;;;;45.30;17.48;;;4.80;99.90;;;;;;5070985;28;20047;-77
2022/01/13 07:42:26;;;;;;;45.58;19.70;;;4.80;99.90;;;;;;5091774;28;20020;-77
2022/01/13 07:44:52;;;;;;;47.15;18.23;;;4.80;99.90;;;;;;5075183;28;20025;-75
2022/01/13 07:47:18;;;;;;;44.90;17.42;;;4.70;99.90;;;;;;5087888;28;20035;-76
2022/01/13 07:49:44;;;;;;;43.92;17.83;;;4.70;99.90;;;;;;5091490;28;20095;-75
2022/01/13 07:52:10;;;;;;;44.25;17.02;;;4.70;99.90;;;;;;5091103;28;20054;-75
2022/01/13 07:54:36;;;;;;;49.50;18.15;;;4.70;99.90;;;;;;5091331;28;20020;-73
2022/01/13 07:57:02;;;;;;;47.95;18.55;;;4.70;99.90;;;;;;5093108;28;20513;-73
2022/01/13 07:59:27;;;;;;;42.83;17.52;;;4.70;99.90;;;;;;5078046;28;20028;-75
2022/01/13 08:01:57;;;;;;;43.65;18.35;;;4.70;99.90;;;;;;5075641;28;20025;-74
2022/01/13 08:04:26;;;;;;;48.55;19.60;;;4.80;99.90;;;;;;5092766;28;20250;-74
2022/01/13 08:06:52;;;;;;;40.90;18.15;;;4.80;99.90;;;;;;5094622;28;20089;-73
2022/01/13 08:09:18;;;;;;;44.05;16.95;;;4.80;99.90;;;;;;5094567;28;20026;-73
2022/01/13 08:11:44;;;;;;;40.60;17.40;;;4.90;99.90;;;;;;5091305;28;20107;-74
2022/01/13 08:14:10;;;;;;;44.35;16.73;;;4.90;99.90;;;;;;5082643;28;20040;-74
2022/01/13 08:16:41;;;;;;;39.85;16.70;;;4.90;99.90;;;;;;5080353;28;20020;-75
2022/01/13 08:21:51;;;;;;;46.58;18.63;;;4.80;99.90;;;;;;5074845;28;20065;-74
2022/01/13 08:24:17;;;;;;;51.33;17.58;;;4.80;99.90;;;;;;5073435;28;20025;-75
2022/01/13 08:26:43;;;;;;;41.72;18.17;;;4.90;99.90;;;;;;5074088;28;20457;-75
2022/01/13 08:29:08;;;;;;;39.63;17.95;;;4.80;99.90;;;;;;5073436;28;20025;-74
2022/01/13 08:31:34;;;;;;;37.97;17.35;;;4.90;99.90;;;;;;5073643;28;20484;-75
2022/01/13 08:33:59;;;;;;;44.13;17.55;;;4.90;99.90;;;;;;5073020;28;20452;-72
2022/01/13 08:36:25;;;;;;;42.85;16.52;;;4.90;99.90;;;;;;5080050;28;20027;-73
2022/01/13 08:38:51;;;;;;;50.90;16.48;;;5.00;99.90;;;;;;5092863;28;20430;-74
2022/01/13 08:41:17;;;;;;;46.38;17.30;;;5.00;99.90;;;;;;5092871;28;20015;-74
2022/01/13 08:43:43;;;;;;;49.35;17.17;;;5.00;99.90;;;;;;5090526;28;20032;-74
2022/01/13 08:46:09;;;;;;;41.70;15.23;;;5.00;99.90;;;;;;5092588;28;20028;-73
2022/01/13 08:48:35;;;;;;;38.50;15.95;;;5.10;99.90;;;;;;5093735;28;20024;-74
2022/01/13 08:51:01;;;;;;;45.50;17.50;;;5.10;99.90;;;;;;5093724;28;20434;-79
2022/01/13 08:53:27;;;;;;;48.53;16.45;;;5.10;99.90;;;;;;5092759;28;20039;-74
2022/01/13 08:55:55;;;;;;;46.42;17.25;;;5.10;99.90;;;;;;5093754;28;20024;-74
2022/01/13 08:58:24;;;;;;;43.35;16.45;;;5.10;99.90;;;;;;5093306;28;20032;-74
2022/01/13 09:00:52;;;;;;;44.67;16.27;;;5.20;99.90;;;;;;5087181;28;20097;-77
2022/01/13 09:03:17;;;;;;;51.92;17.90;;;5.10;99.90;;;;;;5092304;28;20059;-74
2022/01/13 09:05:44;;;;;;;60.85;18.13;;;5.10;99.90;;;;;;5089113;28;20021;-76
2022/01/13 09:08:11;;;;;;;51.35;18.00;;;5.10;99.90;;;;;;5079029;28;20487;-75
2022/01/13 09:10:39;;;;;;;53.20;17.17;;;5.10;99.90;;;;;;5092146;28;20028;-73
2022/01/13 09:13:07;;;;;;;48.85;17.13;;;5.10;99.90;;;;;;5090869;28;20040;-74
2022/01/13 09:15:38;;;;;;;44.97;18.27;;;5.20;99.90;;;;;;5091288;28;20024;-73
2022/01/13 09:18:16;;;;;;;52.30;17.77;;;5.10;99.90;;;;;;5092420;28;20076;-74
2022/01/13 09:20:42;;;;;;;42.22;17.10;;;5.20;99.90;;;;;;5091200;28;20028;-74
2022/01/13 09:23:08;;;;;;;46.03;18.42;;;5.20;99.90;;;;;;5091076;28;20359;-74
2022/01/13 09:25:35;;;;;;;46.60;17.45;;;5.20;99.90;;;;;;5091131;28;20533;-73
2022/01/13 09:28:04;;;;;;;51.83;17.95;;;5.20;99.90;;;;;;5090834;28;20035;-74
2022/01/13 09:30:29;;;;;;;48.38;19.55;;;5.20;99.90;;;;;;5090291;28;20081;-74
2022/01/13 09:32:55;;;;;;;44.40;18.67;;;5.20;99.90;;;;;;5090709;28;20052;-74
2022/01/13 09:35:21;;;;;;;49.47;16.98;;;5.20;99.90;;;;;;5087388;28;20082;-73
2022/01/13 09:37:47;;;;;;;52.45;17.27;;;5.30;99.90;;;;;;5087449;28;20035;-73
2022/01/13 09:40:15;;;;;;;51.42;18.25;;;5.20;99.90;;;;;;5089794;28;20114;-73
2022/01/13 09:42:43;;;;;;;49.08;18.30;;;5.30;99.90;;;;;;5091061;28;20486;-74
2022/01/13 09:45:10;;;;;;;44.78;17.58;;;5.30;99.90;;;;;;5091755;28;20058;-74
2022/01/13 09:47:37;;;;;;;54.13;18.55;;;5.30;99.90;;;;;;5091675;28;20032;-73
2022/01/13 09:50:09;;;;;;;46.17;18.58;;;5.40;99.90;;;;;;5088128;28;20132;-75
2022/01/13 09:52:35;;;;;;;45.28;17.88;;;5.40;99.90;;;;;;5089192;28;20036;-73
2022/01/13 09:55:01;;;;;;;59.42;20.33;;;5.40;99.90;;;;;;5091298;28;20024;-73
2022/01/13 09:57:27;;;;;;;53.42;19.40;;;5.40;99.90;;;;;;5090452;28;20024;-73
2022/01/13 09:59:55;;;;;;;49.05;17.52;;;5.40;99.90;;;;;;5091554;28;20066;-73
2022/01/13 10:02:21;;;;;;;49.90;18.75;;;5.50;99.90;;;;;;5091003;28;20035;-74
2022/01/13 10:04:55;;;;;;;44.60;17.73;;;5.50;99.90;;;;;;5087470;28;20094;-73
2022/01/13 10:07:38;;;;;;;44.08;16.33;;;6.40;99.90;;;;;;5091308;28;20411;-74
2022/01/13 10:10:07;;;;;;;47.63;17.60;;;5.50;99.90;;;;;;5090068;28;20024;-73
2022/01/13 10:12:38;;;;;;;42.88;17.13;;;5.60;99.90;;;;;;5088359;28;20028;-73
2022/01/13 10:18:01;;;;;;;45.45;16.67;;;5.60;99.90;;;;;;5092478;28;20058;-74
2022/01/13 10:20:27;;;;;;;42.38;16.80;;;5.70;99.90;;;;;;5091117;28;20106;-74
2022/01/13 10:22:53;;;;;;;43.78;17.63;;;5.70;99.90;;;;;;5089757;28;20017;-74
2022/01/13 10:25:30;;;;;;;44.67;16.67;;;5.80;99.90;;;;;;5072398;28;20099;-76
2022/01/13 10:28:17;;;;;;;38.67;16.42;;;5.80;99.90;;;;;;5074037;28;20028;-74
2022/01/13 10:30:46;;;;;;;42.90;16.95;;;5.80;99.90;;;;;;5072667;28;20036;-74
2022/01/13 10:33:22;;;;;;;44.28;16.58;;;5.80;99.90;;;;;;5075561;28;20059;-74
2022/01/13 10:35:52;;;;;;;39.92;17.27;;;5.90;99.90;;;;;;5091301;28;20641;-73
2022/01/13 10:38:19;;;;;;;44.63;16.67;;;5.90;99.90;;;;;;5090510;28;20051;-74
2022/01/13 10:40:48;;;;;;;42.55;17.80;;;5.90;99.90;;;;;;5091603;28;20047;-73
2022/01/13 10:43:22;;;;;;;42.78;16.63;;;5.90;99.90;;;;;;5091971;28;20033;-73
2022/01/13 10:45:57;;;;;;;43.95;16.75;;;6.00;99.90;;;;;;5091181;28;20555;-73
2022/01/13 10:48:32;;;;;;;45.20;18.25;;;6.00;99.90;;;;;;5091643;28;20028;-73
2022/01/13 10:51:04;;;;;;;45.42;16.83;;;6.00;99.90;;;;;;5091580;28;20024;-73
2022/01/13 10:53:48;;;;;;;46.42;17.73;;;6.10;99.90;;;;;;5091040;28;20089;-74
2022/01/13 10:56:18;;;;;;;38.42;14.98;;;6.10;99.90;;;;;;5091825;28;20020;-73
2022/01/13 10:58:52;;;;;;;42.03;17.35;;;6.10;99.90;;;;;;5091818;28;20028;-73
2022/01/13 11:01:18;;;;;;;41.33;16.20;;;6.10;99.90;;;;;;5091391;28;20026;-73
2022/01/13 11:03:46;;;;;;;36.83;14.60;;;6.10;99.90;;;;;;5092234;28;20375;-73
2022/01/13 11:06:12;;;;;;;40.22;17.00;;;6.10;99.90;;;;;;5091169;28;20052;-73
2022/01/13 11:08:44;;;;;;;33.15;14.68;;;6.10;99.90;;;;;;5092259;28;20126;-73
2022/01/13 11:11:19;;;;;;;41.38;14.68;;;6.10;99.90;;;;;;5092007;28;20450;-74
2022/01/13 11:13:54;;;;;;;44.17;18.45;;;6.10;99.90;;;;;;5091049;28;20048;-74
2022/01/13 11:16:21;;;;;;;39.38;15.98;;;6.20;99.90;;;;;;5080118;28;20073;-74
2022/01/13 11:18:47;;;;;;;36.47;15.02;;;6.20;99.90;;;;;;5078769;28;20028;-73
2022/01/13 11:21:13;;;;;;;34.75;15.02;;;6.20;99.90;;;;;;5077818;28;20033;-73
2022/01/13 11:23:41;;;;;;;40.70;17.02;;;6.20;99.90;;;;;;5083126;28;20045;-75
2022/01/13 11:26:08;;;;;;;37.50;16.33;;;6.20;99.90;;;;;;5075772;28;20024;-75
2022/01/13 11:28:38;;;;;;;42.78;15.10;;;6.10;99.90;;;;;;5078766;28;20039;-74
2022/01/13 11:31:03;;;;;;;45.22;18.20;;;6.10;99.90;;;;;;5075478;28;20020;-74
2022/01/13 11:33:29;;;;;;;54.05;17.23;;;6.20;99.90;;;;;;5075976;28;20457;-74
2022/01/13 11:35:57;;;;;;;37.20;15.63;;;6.10;99.90;;;;;;5077051;28;20035;-74
2022/01/13 11:38:25;;;;;;;46.95;15.77;;;6.20;99.90;;;;;;5095464;28;20115;-74
2022/01/13 11:40:57;;;;;;;45.47;15.07;;;6.20;99.90;;;;;;5096015;28;20375;-74
2022/01/13 11:43:32;;;;;;;40.63;17.73;;;6.20;99.90;;;;;;5094957;28;20085;-75
2022/01/13 11:46:19;;;;;;;40.53;15.90;;;6.20;99.90;;;;;;5082405;28;20567;-74
2022/01/13 11:49:15;;;;;;;48.53;17.08;;;6.30;99.90;;;;;;5076291;28;20021;-75
2022/01/13 11:51:56;;;;;;;44.17;17.20;;;6.20;99.90;;;;;;5073711;28;20045;-75
2022/01/13 11:54:41;;;;;;;45.95;17.67;;;6.30;99.90;;;;;;5074708;28;20032;-74
2022/01/13 11:57:14;;;;;;;38.70;16.90;;;6.30;99.90;;;;;;5079657;28;20025;-75
2022/01/13 11:59:55;;;;;;;55.50;17.95;;;6.20;99.90;;;;;;5075187;28;20025;-75
2022/01/13 12:02:38;;;;;;;56.45;19.52;;;6.20;99.90;;;;;;5074291;28;20446;-75
2022/01/13 12:05:14;;;;;;;59.15;19.85;;;6.30;99.90;;;;;;5073861;28;20084;-75
2022/01/13 12:07:47;;;;;;;55.70;19.58;;;6.30;99.90;;;;;;5074338;28;20050;-73
2022/01/13 12:10:42;;;;;;;49.10;19.95;;;6.40;99.90;;;;;;5073511;28;20036;-75
2022/01/13 12:13:31;;;;;;;49.03;20.10;;;6.30;99.90;;;;;;5073808;28;20031;-74
2022/01/13 12:15:58;;;;;;;40.53;17.25;;;6.40;99.90;;;;;;5075654;28;20469;-74
2022/01/13 12:18:43;;;;;;;55.00;18.35;;;6.40;99.90;;;;;;5074205;28;20028;-73
2022/01/13 12:21:36;;;;;;;52.17;18.02;;;6.40;99.90;;;;;;5074546;28;20056;-73
2022/01/13 12:24:03;;;;;;;38.72;17.50;;;6.40;99.90;;;;;;5074302;28;20043;-74
2022/01/13 12:26:40;;;;;;;43.35;17.40;;;6.40;99.90;;;;;;5074941;28;20029;-73
2022/01/13 12:29:19;;;;;;;49.70;19.60;;;6.40;99.90;;;;;;5074295;28;20050;-74
2022/01/13 12:32:04;;;;;;;38.83;15.95;;;6.40;99.90;;;;;;5077005;28;20028;-74
2022/01/13 12:34:33;;;;;;;43.13;17.08;;;6.80;99.90;;;;;;5073360;28;20036;-73
2022/01/13 12:37:13;;;;;;;41.50;16.65;;;6.30;99.90;;;;;;5080908;28;20574;-74
2022/01/13 12:39:43;;;;;;;;;;;6.30;99.90;;;;;;5083239;28;20460;-73
2022/01/13 12:42:24;;;;;;;39.47;16.38;;;6.30;99.90;;;;;;5083544;28;20642;-73
2022/01/13 12:47:35;;;;;;;51.90;19.67;;;6.30;99.90;;;;;;5085179;28;20043;-73
2022/01/13 12:50:35;;;;;;;41.88;18.05;;;6.30;99.90;;;;;;5084152;28;20028;-75
2022/01/13 12:53:14;;;;;;;45.63;19.25;;;6.30;99.90;;;;;;5047973;28;20040;-73
2022/01/13 12:55:43;;;;;;;39.72;17.05;;;6.30;99.90;;;;;;5083273;28;20051;-74
2022/01/13 12:58:09;;;;;;;47.28;18.23;;;6.30;99.90;;;;;;5080652;28;20476;-73
2022/01/13 13:00:36;;;;;;;49.40;19.35;;;6.40;99.90;;;;;;5082209;28;20047;-73
2022/01/13 13:03:07;;;;;;;53.95;18.50;;;6.30;99.90;;;;;;5081669;28;20532;-74
2022/01/13 13:05:38;;;;;;;46.17;18.95;;;6.40;99.90;;;;;;5082319;28;20024;-74
2022/01/13 13:08:06;;;;;;;55.25;21.35;;;6.30;99.90;;;;;;5083158;28;20038;-73
2022/01/13 13:10:32;;;;;;;51.60;19.92;;;6.30;99.90;;;;;;5083897;28;20039;-74
2022/01/13 13:13:00;;;;;;;49.50;20.02;;;6.30;99.90;;;;;;5082956;28;20040;-74